Adrian, Illinois
Current Conditions -  °F | °C
As of 6:55 AM on Friday 31 Oct 2014 (Local Time) from KFSW Reporting Station
Clear Clear  
Wind Chill: 24°   Ceiling: Unl
Heat Index: 34°   Visibility: 10mi
Dew Point: 19°   Wind: 15mph
Humidity: 56%   Direction: 330°NNW
Pressure: 30.31"   Gusts: 21mph
Location:  40.52°N, 91.17°W
Report Text: KFSW 311155Z AUTO 33013G18KT 10SM CLR 01/M07 A3031 RMK AO2
Loading
Personal Weather Stations






























Interactive Weather Map New forecast layout! Learn more

10-Day Weather Forecast

Advertisements
Track Severe Weather on mobile